Time;durP1;ratioP1;P1;durP2;ratioP2;P2;SDS_P1;SDS_P2;PMS_P1;PMS_P2;Temp;Humidity;BMP_temperature;BMP_pressure;BME280_temperature;BME280_humidity;BME280_pressure;Samples;Min_cycle;Max_cycle;Signal;HPM_P1;HPM_P2
2022/03/11 00:01:13;;;;;;;7.38;2.95;;;;;;;-3.65;47.15;101930.75;5010140;28;20038;-73
2022/03/11 00:03:38;;;;;;;5.40;3.72;;;;;;;-3.72;48.27;101915.59;5010705;28;20026;-74
2022/03/11 00:06:04;;;;;;;5.85;3.22;;;;;;;-3.80;48.63;101903.84;5009596;28;20026;-74
2022/03/11 00:08:30;;;;;;;6.95;3.92;;;;;;;-3.86;48.73;101889.75;5011542;28;20473;-74
2022/03/11 00:10:56;;;;;;;6.38;2.30;;;;;;;-3.74;48.80;101928.31;5009522;28;20050;-74
2022/03/11 00:13:23;;;;;;;5.80;3.15;;;;;;;-3.89;49.00;101911.66;5008339;28;20045;-73
2022/03/11 00:15:49;;;;;;;5.68;2.85;;;;;;;-3.79;49.75;101913.31;5007563;28;20050;-73
2022/03/11 00:18:14;;;;;;;12.13;4.97;;;;;;;-3.91;49.79;101936.28;5007387;28;20079;-74
2022/03/11 00:20:40;;;;;;;7.97;3.92;;;;;;;-4.03;50.01;101905.41;5009497;28;20042;-74
2022/03/11 00:23:05;;;;;;;7.32;3.38;;;;;;;-4.09;50.07;101913.47;5010386;28;20068;-73
2022/03/11 00:25:31;;;;;;;6.32;3.35;;;;;;;-4.12;51.03;101918.38;5008091;28;20478;-74
2022/03/11 00:27:59;;;;;;;5.47;3.03;;;;;;;-4.11;51.11;101922.72;5010607;28;20065;-73
2022/03/11 00:30:26;;;;;;;7.07;3.88;;;;;;;-4.07;51.62;101922.19;5010417;28;20041;-74
2022/03/11 00:32:52;;;;;;;5.70;3.78;;;;;;;-4.06;51.24;101911.16;5004021;28;20509;-73
2022/03/11 00:35:19;;;;;;;5.90;3.60;;;;;;;-4.10;51.36;101918.47;5009532;28;20533;-74
2022/03/11 00:37:45;;;;;;;7.53;3.75;;;;;;;-4.06;50.97;101931.66;5007499;28;20853;-73
2022/03/11 00:40:12;;;;;;;12.57;3.47;;;;;;;-4.19;51.07;101916.06;5005970;28;20045;-73
2022/03/11 00:42:38;;;;;;;6.72;3.90;;;;;;;-4.09;51.08;101939.13;5008043;28;20049;-72
2022/03/11 00:45:04;;;;;;;21.45;4.63;;;;;;;-4.11;51.68;101921.81;5009741;28;20510;-73
2022/03/11 00:47:29;;;;;;;12.93;4.25;;;;;;;-4.07;51.40;101932.47;5008416;28;20037;-73
2022/03/11 00:49:55;;;;;;;9.63;4.32;;;;;;;-4.19;51.70;101923.75;5007788;28;20502;-73
2022/03/11 00:52:20;;;;;;;6.68;2.47;;;;;;;-4.16;52.12;101930.78;5009498;28;20437;-73
2022/03/11 00:54:45;;;;;;;8.38;5.22;;;;;;;-4.17;52.24;101932.44;5007177;28;20458;-73
2022/03/11 00:57:11;;;;;;;7.43;2.67;;;;;;;-4.22;52.62;101922.59;5003124;28;20059;-74
2022/03/11 00:59:36;;;;;;;6.78;3.35;;;;;;;-4.15;52.56;101925.78;5009076;28;20058;-74
2022/03/11 01:02:02;;;;;;;10.13;4.07;;;;;;;-4.24;53.11;101919.88;5007985;28;20046;-73
2022/03/11 01:04:27;;;;;;;5.82;3.80;;;;;;;-4.07;53.17;101929.91;5009162;28;20038;-74
2022/03/11 01:06:53;;;;;;;6.25;3.80;;;;;;;-4.13;52.36;101914.00;5007369;28;20038;-74
2022/03/11 01:09:18;;;;;;;7.82;4.03;;;;;;;-4.15;52.10;101918.09;5008730;28;20492;-74
2022/03/11 01:11:44;;;;;;;6.10;3.55;;;;;;;-4.17;53.01;101919.63;5008583;28;20401;-74
2022/03/11 01:14:09;;;;;;;5.28;3.33;;;;;;;-4.11;52.57;101915.03;5009263;28;20038;-74
2022/03/11 01:16:35;;;;;;;9.73;3.72;;;;;;;-4.12;52.79;101908.13;5008889;28;20054;-74
2022/03/11 01:19:01;;;;;;;7.82;5.30;;;;;;;-4.16;52.75;101915.41;5008406;28;20038;-73
2022/03/11 01:21:27;;;;;;;9.93;4.38;;;;;;;-4.11;52.72;101915.03;5009146;28;20029;-74
2022/03/11 01:23:53;;;;;;;6.97;4.25;;;;;;;-4.13;52.87;101906.31;5008791;28;20373;-72
2022/03/11 01:26:19;;;;;;;9.38;3.90;;;;;;;-4.09;52.44;101913.47;5007721;28;20041;-73
2022/03/11 01:28:45;;;;;;;10.73;3.30;;;;;;;-4.07;51.86;101900.81;5005214;28;20046;-73
2022/03/11 01:31:12;;;;;;;7.10;3.25;;;;;;;-3.96;52.46;101901.66;5007608;28;20068;-73
2022/03/11 01:33:43;;;;;;;11.57;3.28;;;;;;;-4.01;52.80;101913.22;5004893;28;20084;-73
2022/03/11 01:36:10;;;;;;;7.25;3.22;;;;;;;-4.01;51.92;101916.69;5009040;28;20030;-72
2022/03/11 01:38:36;;;;;;;7.20;4.00;;;;;;;-4.04;51.83;101919.00;5008125;28;20137;-73
2022/03/11 01:41:02;;;;;;;9.25;5.07;;;;;;;-4.01;52.04;101918.34;5002535;28;20137;-73
2022/03/11 01:43:28;;;;;;;8.05;4.25;;;;;;;-4.04;51.87;101908.75;5002934;28;20042;-73
2022/03/11 01:45:54;;;;;;;6.88;3.47;;;;;;;-4.00;51.85;101917.56;5006871;28;20120;-73
2022/03/11 01:48:19;;;;;;;6.55;3.88;;;;;;;-4.01;51.69;101914.09;5007165;28;20033;-73
2022/03/11 01:50:46;;;;;;;7.10;3.60;;;;;;;-4.05;52.02;101912.06;5007741;28;20038;-74
2022/03/11 01:53:13;;;;;;;6.85;4.10;;;;;;;-4.12;51.92;101928.63;5006831;28;20053;-74
2022/03/11 01:55:39;;;;;;;10.98;4.65;;;;;;;-4.12;52.35;101915.81;5008708;28;20041;-74
2022/03/11 01:58:06;;;;;;;9.55;2.80;;;;;;;-4.27;52.07;101909.38;5008000;28;20046;-73
2022/03/11 02:00:35;;;;;;;5.18;2.80;;;;;;;-4.23;52.17;101921.69;5008191;28;20025;-73
2022/03/11 02:03:01;;;;;;;11.23;5.05;;;;;;;-4.11;52.29;101909.00;5008699;28;20022;-73
2022/03/11 02:05:28;;;;;;;16.35;4.22;;;;;;;-4.22;52.91;101927.72;5008139;28;20057;-73
2022/03/11 02:07:53;;;;;;;8.73;4.03;;;;;;;-4.34;53.46;101901.97;5008102;28;20083;-73
2022/03/11 02:10:20;;;;;;;7.82;3.47;;;;;;;-4.35;53.50;101905.31;5008486;28;20096;-73
2022/03/11 02:12:45;;;;;;;7.43;4.47;;;;;;;-4.40;53.39;101911.69;5007219;28;20486;-73
2022/03/11 02:15:11;;;;;;;7.38;4.18;;;;;;;-4.54;53.77;101921.69;5009130;28;20525;-74
2022/03/11 02:17:36;;;;;;;4.88;2.42;;;;;;;-4.53;54.56;101935.38;5007456;28;20544;-73
2022/03/11 02:20:05;;;;;;;9.52;4.50;;;;;;;-4.49;54.86;101919.50;5008392;28;20390;-73
2022/03/11 02:22:36;;;;;;;14.25;5.15;;;;;;;-4.49;54.29;101925.53;5008043;28;20052;-73
2022/03/11 02:25:07;;;;;;;8.50;3.35;;;;;;;-4.54;54.31;101919.13;5008082;28;20042;-73
2022/03/11 02:27:39;;;;;;;6.57;4.15;;;;;;;-4.61;54.98;101927.06;4999994;28;20751;-74
2022/03/11 02:30:16;;;;;;;6.43;3.28;;;;;;;-4.44;55.34;101935.28;5006545;28;20034;-73
2022/03/11 02:32:41;;;;;;;7.30;4.43;;;;;;;-4.74;55.76;101925.09;5001474;28;20073;-73
2022/03/11 02:35:08;;;;;;;8.63;4.28;;;;;;;-4.68;56.03;101940.09;5006931;28;20481;-73
2022/03/11 02:37:34;;;;;;;8.35;3.88;;;;;;;-4.68;56.81;101940.09;4995266;28;20433;-73
2022/03/11 02:39:59;;;;;;;8.45;3.00;;;;;;;-4.85;57.27;101933.50;5005848;28;20046;-73
2022/03/11 02:42:25;;;;;;;9.18;4.22;;;;;;;-4.89;56.97;101932.34;5007806;28;20029;-73
2022/03/11 02:44:50;;;;;;;11.20;4.70;;;;;;;-4.80;57.05;101937.38;5007420;28;20050;-73
2022/03/11 02:47:16;;;;;;;6.88;3.72;;;;;;;-4.79;56.04;101922.91;5007426;28;20038;-73
2022/03/11 02:49:41;;;;;;;8.63;3.13;;;;;;;-4.72;55.37;101917.56;5007240;28;20141;-73
2022/03/11 02:52:07;;;;;;;9.30;5.20;;;;;;;-4.67;55.33;101929.06;5007956;28;20137;-73
2022/03/11 02:54:32;;;;;;;10.38;4.38;;;;;;;-4.16;54.63;101928.22;5007192;28;20079;-74
2022/03/11 02:56:58;;;;;;;6.97;4.38;;;;;;;-4.17;54.23;101927.31;5007895;28;20051;-73
2022/03/11 02:59:24;;;;;;;12.07;5.35;;;;;;;-4.28;54.35;101933.22;5007808;28;20038;-73
2022/03/11 03:01:49;;;;;;;8.40;3.83;;;;;;;-4.56;54.11;101932.56;5008660;28;20045;-73
2022/03/11 03:04:14;;;;;;;8.50;3.97;;;;;;;-4.48;54.94;101929.88;5007342;28;20042;-73
2022/03/11 03:06:40;;;;;;;11.35;4.53;;;;;;;-4.36;54.80;101941.91;5006409;28;20025;-73
2022/03/11 03:09:07;;;;;;;8.93;3.97;;;;;;;-4.40;55.18;101938.22;5007895;28;20034;-73
2022/03/11 03:11:32;;;;;;;12.15;5.18;;;;;;;-4.58;56.61;101932.44;5008179;28;20100;-73
2022/03/11 03:13:58;;;;;;;6.70;4.28;;;;;;;-4.75;56.48;101946.34;5007051;28;20441;-72
2022/03/11 03:16:23;;;;;;;7.68;3.58;;;;;;;-4.50;55.65;101939.06;5007270;28;20421;-72
2022/03/11 03:18:50;;;;;;;9.25;4.88;;;;;;;-4.71;56.51;101937.25;5007319;28;20061;-73
2022/03/11 03:21:15;;;;;;;7.28;3.88;;;;;;;-4.57;56.37;101939.31;5006980;28;20034;-73
2022/03/11 03:23:41;;;;;;;7.15;5.07;;;;;;;-4.80;56.11;101933.91;5008215;28;20084;-73
2022/03/11 03:26:06;;;;;;;11.57;6.72;;;;;;;-4.68;55.96;101920.50;5008011;28;20046;-73
2022/03/11 03:28:32;;;;;;;8.00;5.28;;;;;;;-4.76;55.96;101923.16;5007127;28;20102;-73
2022/03/11 03:30:57;;;;;;;13.00;4.68;;;;;;;-4.63;56.12;101940.50;5003101;28;20053;-73
2022/03/11 03:33:23;;;;;;;6.57;3.83;;;;;;;-4.49;56.39;101924.63;5007855;28;20022;-73
2022/03/11 03:35:48;;;;;;;7.97;4.18;;;;;;;-4.78;56.78;101937.50;5006040;28;20549;-73
2022/03/11 03:38:14;;;;;;;9.43;5.45;;;;;;;-4.63;56.56;101932.81;5008674;28;20349;-73
2022/03/11 03:40:39;;;;;;;9.07;5.65;;;;;;;-4.59;56.04;101935.75;5010515;28;20572;-72
2022/03/11 03:43:07;;;;;;;11.07;6.72;;;;;;;-4.60;56.80;101927.94;5012782;28;20060;-73
2022/03/11 03:45:33;;;;;;;18.02;9.48;;;;;;;-4.16;55.93;101930.78;5011123;28;20053;-73
2022/03/11 03:48:01;;;;;;;13.52;8.57;;;;;;;-4.05;54.86;101928.34;5010881;28;20075;-73
2022/03/11 03:50:46;;;;;;;16.90;7.43;;;;;;;-4.25;56.44;101925.78;5009791;28;20042;-73
2022/03/11 03:53:12;;;;;;;11.15;5.70;;;;;;;-4.12;56.99;101927.69;5011003;28;20046;-73
2022/03/11 03:55:37;;;;;;;10.35;5.13;;;;;;;-4.50;57.04;101928.84;5010594;28;20505;-73
2022/03/11 03:58:03;;;;;;;12.52;5.22;;;;;;;-4.37;55.27;101927.34;5010610;28;20037;-73
2022/03/11 04:00:29;;;;;;;10.73;4.40;;;;;;;-4.50;55.47;101920.25;5010898;28;20053;-74
2022/03/11 04:02:54;;;;;;;9.05;3.65;;;;;;;-4.19;54.59;101917.72;5011245;28;20042;-73
2022/03/11 04:05:20;;;;;;;8.65;3.28;;;;;;;-4.38;55.07;101931.53;5011120;28;20069;-73
2022/03/11 04:07:46;;;;;;;11.75;4.53;;;;;;;-4.37;54.34;101919.66;5010490;28;20038;-73
2022/03/11 04:10:13;;;;;;;10.88;5.15;;;;;;;-4.60;54.07;101941.63;5010092;28;20050;-73
2022/03/11 04:12:41;;;;;;;10.13;3.92;;;;;;;-4.42;54.55;101929.50;5008270;28;20030;-72
2022/03/11 04:15:07;;;;;;;8.55;3.53;;;;;;;-4.73;54.29;101921.78;5010460;28;20038;-73
2022/03/11 04:17:33;;;;;;;7.05;4.25;;;;;;;-4.88;54.34;101929.03;5010546;28;20107;-73
2022/03/11 04:19:59;;;;;;;8.80;4.50;;;;;;;-4.70;54.01;101932.28;5009482;28;20034;-73
2022/03/11 04:22:26;;;;;;;6.35;3.88;;;;;;;-4.89;54.09;101934.03;5010017;28;20486;-73
2022/03/11 04:24:51;;;;;;;8.68;4.57;;;;;;;-4.50;53.55;101941.63;5010114;28;20129;-74
2022/03/11 04:27:17;;;;;;;10.80;5.32;;;;;;;-4.94;54.82;101942.94;5010326;28;20045;-73
2022/03/11 04:29:42;;;;;;;8.20;4.88;;;;;;;-4.99;54.78;101942.53;5009579;28;20073;-73
2022/03/11 04:32:08;;;;;;;6.78;4.50;;;;;;;-4.92;55.33;101942.34;5007404;28;20077;-73
2022/03/11 04:34:34;;;;;;;11.07;5.57;;;;;;;-5.17;55.34;101939.31;5010135;28;20521;-74
2022/03/11 04:37:00;;;;;;;10.35;6.40;;;;;;;-4.94;54.62;101950.63;5009712;28;20411;-73
2022/03/11 04:39:26;;;;;;;9.02;4.53;;;;;;;-4.95;54.46;101946.28;5009582;28;20049;-73
2022/03/11 04:41:53;;;;;;;9.38;3.17;;;;;;;-5.15;54.55;101929.19;5007330;28;20518;-73
2022/03/11 04:44:19;;;;;;;8.40;4.00;;;;;;;-4.93;55.22;101953.31;5010044;28;20034;-73
2022/03/11 04:46:45;;;;;;;7.63;4.28;;;;;;;-5.03;54.73;101944.69;5009748;28;20125;-76
2022/03/11 04:49:11;;;;;;;8.20;4.80;;;;;;;-4.98;54.38;101936.69;5010524;28;20293;-73
2022/03/11 04:51:38;;;;;;;20.48;8.45;;;;;;;-5.00;55.00;101937.31;5011317;28;20022;-76
2022/03/11 04:54:04;;;;;;;7.93;3.95;;;;;;;-4.80;53.72;101932.25;5006524;28;20491;-74
2022/03/11 04:56:31;;;;;;;10.38;3.78;;;;;;;-4.85;54.27;101947.97;5005134;28;20056;-76
2022/03/11 04:58:56;;;;;;;6.82;3.63;;;;;;;-5.02;54.43;101943.97;5002277;28;20148;-74
2022/03/11 05:01:22;;;;;;;10.45;4.85;;;;;;;-5.09;54.80;101953.66;5010383;28;20092;-75
2022/03/11 05:03:47;;;;;;;9.68;6.30;;;;;;;-5.19;53.85;101958.72;5010094;28;20033;-76
2022/03/11 05:06:12;;;;;;;8.65;6.80;;;;;;;-5.07;53.71;101964.03;5011202;28;20060;-75
2022/03/11 05:08:38;;;;;;;10.63;5.45;;;;;;;-5.04;53.66;101963.41;5010343;28;20470;-74
2022/03/11 05:11:05;;;;;;;12.88;5.43;;;;;;;-5.10;53.98;101961.22;5008021;28;20107;-74
2022/03/11 05:13:30;;;;;;;12.70;5.93;;;;;;;-4.81;53.43;101967.97;4998193;28;20580;-74
2022/03/11 05:15:56;;;;;;;11.70;6.60;;;;;;;-4.91;54.01;101971.38;5009488;28;20049;-74
2022/03/11 05:18:22;;;;;;;11.00;6.00;;;;;;;-4.79;52.91;101967.31;5009637;28;20021;-74
2022/03/11 05:20:47;;;;;;;13.65;6.70;;;;;;;-4.42;51.61;101967.03;5009125;28;20084;-75
2022/03/11 05:23:13;;;;;;;16.25;6.07;;;;;;;-4.31;50.81;101989.31;5009572;28;20496;-76
2022/03/11 05:25:38;;;;;;;15.02;8.32;;;;;;;-4.61;51.91;101980.84;5008519;28;20042;-73
2022/03/11 05:28:04;;;;;;;10.23;6.32;;;;;;;-4.51;51.39;101982.50;5007108;28;20049;-74
2022/03/11 05:30:30;;;;;;;11.88;8.05;;;;;;;-4.34;51.10;101992.53;5009209;28;20025;-74
2022/03/11 05:32:56;;;;;;;14.25;5.65;;;;;;;-4.32;50.90;101987.53;5007309;28;20493;-73
2022/03/11 05:35:21;;;;;;;10.75;4.75;;;;;;;-4.19;50.84;101987.81;5008915;28;20133;-73
2022/03/11 05:37:47;;;;;;;8.38;3.78;;;;;;;-4.25;50.54;101977.03;5003806;28;20412;-74
2022/03/11 05:40:13;;;;;;;11.82;4.65;;;;;;;-4.00;49.61;101991.91;4994991;28;20104;-73
2022/03/11 05:42:40;;;;;;;6.20;4.03;;;;;;;-4.13;49.76;101985.75;5008354;28;20061;-73
2022/03/11 05:45:07;;;;;;;14.70;5.85;;;;;;;-4.27;50.19;101987.16;5003139;28;20521;-75
2022/03/11 05:47:33;;;;;;;9.20;5.15;;;;;;;-4.35;49.80;101990.75;5008668;28;20144;-73
2022/03/11 05:49:58;;;;;;;7.78;4.55;;;;;;;-4.25;50.72;101988.19;5006813;28;20473;-73
2022/03/11 05:52:24;;;;;;;12.02;6.50;;;;;;;-4.21;50.58;101984.22;5005289;28;20069;-73
2022/03/11 05:54:51;;;;;;;13.18;6.38;;;;;;;-3.96;49.09;101981.16;5009304;28;20046;-73
2022/03/11 05:57:17;;;;;;;27.85;13.20;;;;;;;-4.22;49.62;101974.72;5006673;28;20042;-73
2022/03/11 05:59:42;;;;;;;31.10;15.43;;;;;;;-4.25;49.74;101969.34;5007579;28;20449;-75
2022/03/11 06:02:08;;;;;;;10.63;6.45;;;;;;;-4.15;49.43;101984.72;5007063;28;20172;-75
2022/03/11 06:04:36;;;;;;;17.70;8.60;;;;;;;-4.04;48.57;101973.72;5003825;28;20037;-75
2022/03/11 06:07:02;;;;;;;10.25;5.32;;;;;;;-3.96;48.62;101989.72;5007812;28;20040;-73
2022/03/11 06:09:27;;;;;;;10.60;5.15;;;;;;;-3.89;48.08;101988.56;5005901;28;20456;-74
2022/03/11 06:11:53;;;;;;;13.25;7.68;;;;;;;-3.92;47.11;101996.03;5007886;28;20049;-74
2022/03/11 06:14:19;;;;;;;26.35;11.43;;;;;;;-3.85;47.26;101990.63;5005383;28;20045;-74
2022/03/11 06:16:44;;;;;;;18.35;8.18;;;;;;;-3.72;46.77;101993.47;5007164;28;20492;-74
2022/03/11 06:19:09;;;;;;;10.00;4.63;;;;;;;-3.37;46.16;102000.59;5007841;28;20029;-76
2022/03/11 06:21:35;;;;;;;9.65;4.53;;;;;;;-3.78;46.73;101992.03;5008633;28;20037;-73
2022/03/11 06:24:01;;;;;;;15.07;6.40;;;;;;;-3.45;46.56;101997.38;5007569;28;20540;-73
2022/03/11 06:26:26;;;;;;;12.15;5.63;;;;;;;-3.36;47.25;102007.50;5008002;28;20532;-74
2022/03/11 06:28:52;;;;;;;11.45;5.93;;;;;;;-3.34;45.81;101998.25;5007056;28;20053;-73
2022/03/11 06:31:17;;;;;;;9.55;6.00;;;;;;;-3.24;45.60;102008.50;5004222;28;20501;-72
2022/03/11 06:33:43;;;;;;;8.43;4.97;;;;;;;-3.19;44.96;102014.88;5008135;28;20088;-75
2022/03/11 06:36:08;;;;;;;8.60;4.63;;;;;;;-2.91;45.23;102003.38;5008447;28;20034;-74
2022/03/11 06:38:34;;;;;;;13.32;7.82;;;;;;;-3.14;46.34;101981.88;5007045;28;20049;-74
2022/03/11 06:40:59;;;;;;;18.20;6.93;;;;;;;-2.84;45.95;101992.81;5007487;28;20081;-74
2022/03/11 06:43:25;;;;;;;9.00;5.32;;;;;;;-2.91;45.40;101998.25;5007205;28;20065;-74
2022/03/11 06:45:52;;;;;;;15.77;5.00;;;;;;;-2.86;45.08;101990.13;5006553;28;20511;-74
2022/03/11 06:48:18;;;;;;;6.15;3.25;;;;;;;-2.82;44.44;101992.16;5006756;28;20377;-74
2022/03/11 06:50:44;;;;;;;7.15;5.03;;;;;;;-2.59;43.81;101988.84;5007806;28;20528;-73
2022/03/11 06:53:10;;;;;;;9.30;5.25;;;;;;;-2.73;43.08;101974.03;5007785;28;20053;-73
2022/03/11 06:55:53;;;;;;;9.90;5.57;;;;;;;-2.59;43.25;101977.69;5008292;28;20398;-74
2022/03/11 06:58:18;;;;;;;10.60;4.50;;;;;;;-2.29;42.39;101992.00;5006638;28;20073;-75
2022/03/11 07:00:44;;;;;;;28.05;4.50;;;;;;;-2.80;41.98;101979.47;5008453;28;20108;-72
2022/03/11 07:03:09;;;;;;;6.78;3.45;;;;;;;-2.87;42.23;101966.91;5008697;28;20034;-75
2022/03/11 07:05:35;;;;;;;8.00;4.00;;;;;;;-2.69;41.11;101972.56;5007335;28;20046;-73
2022/03/11 07:08:00;;;;;;;6.03;4.10;;;;;;;-2.73;41.42;101973.13;5003658;28;20109;-72
2022/03/11 07:10:26;;;;;;;7.03;3.55;;;;;;;-2.59;41.95;101968.28;5008075;28;20050;-73
2022/03/11 07:12:52;;;;;;;7.40;3.72;;;;;;;-2.37;41.30;101969.94;5010613;28;20061;-72
2022/03/11 07:15:17;;;;;;;13.32;4.90;;;;;;;-2.52;41.80;101969.66;5011240;28;20076;-72
2022/03/11 07:17:43;;;;;;;27.23;4.88;;;;;;;-2.32;41.68;101958.34;5011761;28;20046;-72
2022/03/11 07:20:09;;;;;;;6.03;3.55;;;;;;;-2.34;41.29;101962.50;5009855;28;20045;-75
2022/03/11 07:22:35;;;;;;;8.63;4.13;;;;;;;-2.52;41.40;101976.50;5008892;28;20049;-75
2022/03/11 07:25:01;;;;;;;8.75;4.20;;;;;;;-2.85;40.84;101960.22;5008408;28;20493;-75
2022/03/11 07:27:27;;;;;;;10.07;4.95;;;;;;;-2.35;41.31;101956.44;5010150;28;20061;-77
2022/03/11 07:29:53;;;;;;;7.78;4.68;;;;;;;-2.65;40.88;101960.09;5004058;28;20049;-76
2022/03/11 07:32:19;;;;;;;14.55;7.10;;;;;;;-2.46;41.13;101959.88;5008148;28;20052;-75
2022/03/11 07:34:44;;;;;;;13.98;8.15;;;;;;;-2.70;40.47;101960.53;5008022;28;20045;-74
2022/03/11 07:37:12;;;;;;;8.73;4.60;;;;;;;-2.53;40.43;101952.44;5009954;28;20608;-74
2022/03/11 07:39:41;;;;;;;23.20;10.23;;;;;;;-2.11;40.92;101951.38;5009121;28;20537;-74
2022/03/11 07:42:07;;;;;;;7.78;3.53;;;;;;;-2.38;40.54;101932.19;5006486;28;20534;-75
2022/03/11 07:44:33;;;;;;;13.50;6.00;;;;;;;-2.08;41.29;101943.91;5009642;28;20094;-79
2022/03/11 07:46:59;;;;;;;122.50;49.72;;;;;;;4.93;50.31;101917.91;5008932;28;20046;-73
2022/03/11 07:49:27;;;;;;;28.30;13.77;;;;;;;2.51;42.36;101925.25;5007360;28;20469;-72
2022/03/11 07:51:53;;;;;;;38.50;23.33;;;;;;;9.42;37.47;101907.16;5008597;28;20052;-72
2022/03/11 07:54:18;;;;;;;24.50;12.52;;;;;;;4.86;42.87;101928.81;5007662;28;20029;-72
2022/03/11 07:56:44;;;;;;;28.45;9.93;;;;;;;4.29;37.14;101922.59;5009859;28;20053;-72
2022/03/11 07:59:09;;;;;;;9.48;6.25;;;;;;;4.53;30.34;101903.00;5004723;28;20046;-72
2022/03/11 08:01:35;;;;;;;18.10;5.82;;;;;;;5.39;30.08;101901.81;5007328;28;20046;-72
2022/03/11 08:04:01;;;;;;;10.60;4.75;;;;;;;2.93;34.76;101896.47;5005165;28;20562;-72
2022/03/11 08:06:26;;;;;;;8.05;4.65;;;;;;;2.53;36.07;101897.72;4990494;28;20053;-72
2022/03/11 08:08:51;;;;;;;6.57;3.80;;;;;;;2.93;32.07;101918.09;5009369;28;20542;-72
2022/03/11 08:11:17;;;;;;;9.43;4.75;;;;;;;3.94;30.35;101901.81;5009820;28;20046;-75
2022/03/11 08:13:42;;;;;;;5.97;3.70;;;;;;;0.62;33.43;101906.03;5003868;28;20045;-75
2022/03/11 08:16:08;;;;;;;7.70;3.78;;;;;;;0.12;35.35;101900.19;5005212;28;20049;-73
2022/03/11 08:18:35;;;;;;;8.05;5.13;;;;;;;-0.48;35.73;101898.72;5008047;28;20080;-74
2022/03/11 08:21:03;;;;;;;9.68;6.03;;;;;;;0.00;35.43;101908.00;5007954;28;20452;-74
2022/03/11 08:23:29;;;;;;;7.53;3.63;;;;;;;0.15;35.59;101895.22;5008425;28;20132;-74
2022/03/11 08:25:54;;;;;;;6.38;3.70;;;;;;;-0.43;36.13;101885.34;5009702;28;20069;-75
2022/03/11 08:28:22;;;;;;;8.63;5.15;;;;;;;-0.83;36.79;101884.28;5009852;28;20095;-75
2022/03/11 08:30:48;;;;;;;6.53;3.85;;;;;;;-0.76;35.71;101886.50;5007854;28;20782;-72
2022/03/11 08:33:20;;;;;;;6.00;3.58;;;;;;;-0.38;36.27;101902.81;5009024;28;20029;-75
2022/03/11 08:35:46;;;;;;;6.60;3.35;;;;;;;-0.37;35.35;101902.94;5007999;28;20062;-72
2022/03/11 08:38:11;;;;;;;4.18;2.55;;;;;;;-0.14;36.59;101899.34;5008848;28;20042;-73
2022/03/11 08:40:37;;;;;;;9.80;5.82;;;;;;;-0.62;37.33;101900.34;5007804;28;21003;-73
2022/03/11 08:43:03;;;;;;;7.53;4.72;;;;;;;-0.31;36.82;101897.28;5009199;28;20054;-73
2022/03/11 08:45:28;;;;;;;6.45;4.03;;;;;;;-0.79;37.73;101888.88;5008069;28;20056;-73
2022/03/11 08:47:54;;;;;;;7.68;4.50;;;;;;;-1.01;37.74;101883.00;5007180;28;20185;-73
2022/03/11 08:50:22;;;;;;;7.00;4.15;;;;;;;-1.36;39.06;101891.69;5008015;28;20049;-73
2022/03/11 08:52:47;;;;;;;9.85;5.75;;;;;;;-0.88;38.18;101889.13;5007912;28;20050;-74
2022/03/11 08:55:15;;;;;;;9.13;4.88;;;;;;;-0.52;37.58;101883.81;5008505;28;20110;-75
2022/03/11 08:57:40;;;;;;;13.05;6.43;;;;;;;-0.07;37.18;101885.13;5007673;28;20080;-75
2022/03/11 09:00:08;;;;;;;8.38;4.82;;;;;;;0.08;36.30;101875.84;5009076;28;20032;-73
2022/03/11 09:02:37;;;;;;;7.53;4.18;;;;;;;-0.22;35.76;101875.59;5006235;28;20144;-75
2022/03/11 09:05:06;;;;;;;6.13;3.67;;;;;;;0.08;35.04;101888.75;5006427;28;20160;-74
2022/03/11 09:07:32;;;;;;;9.30;3.75;;;;;;;-0.01;35.23;101891.59;5006213;28;20060;-75
2022/03/11 09:09:59;;;;;;;5.05;2.35;;;;;;;-1.15;35.74;101877.78;5007460;28;20044;-73
2022/03/11 09:12:24;;;;;;;9.38;4.30;;;;;;;-0.82;35.86;101883.53;5008032;28;20034;-74
2022/03/11 09:14:50;;;;;;;5.97;2.92;;;;;;;0.00;35.16;101892.53;5008555;28;20131;-74
2022/03/11 09:17:15;;;;;;;6.78;3.67;;;;;;;0.14;34.78;101889.16;5006762;28;20486;-74
2022/03/11 09:19:43;;;;;;;7.65;2.92;;;;;;;0.10;34.33;101876.84;5008525;28;20057;-74
2022/03/11 09:22:09;;;;;;;8.60;3.97;;;;;;;0.06;34.77;101873.97;5008064;28;20064;-73
2022/03/11 09:24:35;;;;;;;6.20;3.00;;;;;;;0.25;35.00;101882.09;5007055;28;20038;-73
2022/03/11 09:27:00;;;;;;;13.68;4.10;;;;;;;0.37;36.30;101853.63;5008930;28;20420;-74
2022/03/11 09:29:28;;;;;;;6.10;3.58;;;;;;;0.43;35.20;101868.63;5006190;28;20047;-74
2022/03/11 09:31:55;;;;;;;6.53;3.83;;;;;;;0.52;35.04;101872.69;5007683;28;20045;-74
2022/03/11 09:34:22;;;;;;;6.30;3.78;;;;;;;-0.14;35.77;101872.63;5010206;28;20033;-74
2022/03/11 09:36:47;;;;;;;7.55;3.95;;;;;;;0.04;34.88;101862.66;5008397;28;20412;-72
2022/03/11 09:39:12;;;;;;;5.95;3.03;;;;;;;0.69;33.92;101873.75;5010923;28;20485;-73
2022/03/11 09:41:39;;;;;;;6.25;2.75;;;;;;;0.57;35.50;101860.94;5009631;28;20505;-75
2022/03/11 09:44:05;;;;;;;5.97;3.38;;;;;;;-0.08;35.16;101861.03;5009837;28;20046;-75
2022/03/11 09:46:33;;;;;;;5.40;3.20;;;;;;;-0.25;36.35;101852.19;5010139;28;20042;-73
2022/03/11 09:48:59;;;;;;;8.02;3.28;;;;;;;0.23;34.20;101863.03;5009642;28;20049;-75
2022/03/11 09:51:25;;;;;;;8.23;3.88;;;;;;;0.72;33.62;101834.31;5010975;28;20026;-75
2022/03/11 09:53:51;;;;;;;8.52;4.40;;;;;;;0.63;34.25;101848.44;5009291;28;20137;-76
2022/03/11 09:56:19;;;;;;;4.95;2.70;;;;;;;1.03;34.37;101845.75;5009357;28;20045;-75
2022/03/11 09:58:44;;;;;;;6.30;3.50;;;;;;;1.19;34.00;101851.84;5007530;28;20065;-74
2022/03/11 10:01:10;;;;;;;7.75;4.18;;;;;;;1.29;34.45;101838.69;5005153;28;20037;-74
2022/03/11 10:03:36;;;;;;;6.50;4.07;;;;;;;1.10;35.58;101825.44;5009767;28;20446;-76
2022/03/11 10:06:02;;;;;;;4.85;2.13;;;;;;;-0.45;37.19;101839.63;5008316;28;20458;-75
2022/03/11 10:08:42;;;;;;;5.70;3.38;;;;;;;-0.05;35.61;101832.88;5008546;28;20045;-78
2022/03/11 10:11:17;;;;;;;6.85;3.25;;;;;;;0.66;36.01;101826.19;5005387;28;20061;-76
2022/03/11 10:13:43;;;;;;;8.65;3.58;;;;;;;0.70;33.96;101826.44;5002358;28;20041;-78
2022/03/11 10:16:19;;;;;;;6.93;3.78;;;;;;;1.14;34.02;101819.66;5003378;28;20050;-75
2022/03/11 10:18:56;;;;;;;5.53;3.28;;;;;;;1.61;33.36;101821.63;5008597;28;20030;-75
2022/03/11 10:21:34;;;;;;;6.05;2.85;;;;;;;1.70;33.00;101819.56;5008302;28;20029;-75
2022/03/11 10:24:01;;;;;;;5.15;2.70;;;;;;;1.77;33.22;101815.66;5005652;28;20056;-75
2022/03/11 10:26:33;;;;;;;7.45;4.68;;;;;;;1.87;33.60;101811.09;5004549;28;20128;-75
2022/03/11 10:29:00;;;;;;;11.45;4.85;;;;;;;2.12;32.40;101804.72;5008074;28;20037;-76
2022/03/11 10:31:37;;;;;;;4.82;2.65;;;;;;;1.41;33.38;101802.34;5008263;28;20041;-79
2022/03/11 10:34:22;;;;;;;9.60;4.13;;;;;;;0.87;33.65;101804.28;5006409;28;20046;-75
2022/03/11 10:37:01;;;;;;;8.57;3.97;;;;;;;0.36;35.36;101795.94;5005001;28;20030;-75
2022/03/11 10:39:38;;;;;;;6.95;3.58;;;;;;;0.44;35.79;101804.16;5008637;28;20032;-75
2022/03/11 10:42:12;;;;;;;4.80;3.05;;;;;;;0.12;35.53;101800.44;5007992;28;20081;-75
2022/03/11 10:44:39;;;;;;;5.50;3.53;;;;;;;0.51;34.94;101793.41;5008576;28;21112;-75
2022/03/11 10:47:25;;;;;;;11.38;4.78;;;;;;;1.83;34.53;101783.25;5007809;28;20111;-74
2022/03/11 10:49:53;;;;;;;7.20;3.88;;;;;;;0.94;35.97;101774.53;5005794;28;20065;-75
2022/03/11 10:52:48;;;;;;;20.52;3.40;;;;;;;1.96;35.09;101776.19;5009350;28;20080;-75
2022/03/11 10:55:17;;;;;;;9.75;3.88;;;;;;;2.47;33.65;101780.78;4998515;28;20046;-77
2022/03/11 10:58:04;;;;;;;8.77;3.92;;;;;;;2.34;32.91;101770.53;5009558;28;20029;-75
2022/03/11 11:00:32;;;;;;;8.07;5.10;;;;;;;2.33;33.13;101781.72;5005027;28;20034;-74
2022/03/11 11:03:05;;;;;;;7.72;4.30;;;;;;;0.97;34.69;101764.38;5008966;28;20790;-75
2022/03/11 11:05:33;;;;;;;7.65;5.18;;;;;;;2.04;33.25;101773.25;5008189;28;20045;-75
2022/03/11 11:07:59;;;;;;;9.98;4.18;;;;;;;0.93;33.54;101752.94;5007625;28;20046;-73
2022/03/11 11:10:27;;;;;;;10.75;6.45;;;;;;;1.74;35.17;101755.97;5008578;28;20389;-75
2022/03/11 11:12:53;;;;;;;7.55;4.35;;;;;;;2.32;32.70;101761.84;5008952;28;20041;-76
2022/03/11 11:15:19;;;;;;;7.75;4.50;;;;;;;2.58;32.81;101760.66;5008904;28;20022;-78
2022/03/11 11:17:47;;;;;;;8.90;5.38;;;;;;;2.58;32.63;101749.41;5008977;28;20038;-78
2022/03/11 11:20:40;;;;;;;10.98;5.80;;;;;;;2.71;31.72;101744.06;5012244;28;20505;-78
2022/03/11 11:23:08;;;;;;;9.43;3.57;;;;;;;3.17;32.89;101751.66;5007008;28;20053;-77